createdAt,value
2019-05-13T00:00:53.870Z,5.55
2019-05-13T00:03:20.033Z,5.53
2019-05-13T00:05:46.203Z,5.52
2019-05-13T00:08:13.943Z,5.48
2019-05-13T00:10:40.449Z,5.45
2019-05-13T00:13:06.589Z,5.46
2019-05-13T00:15:34.046Z,5.44
2019-05-13T00:18:00.490Z,5.44
2019-05-13T00:20:26.753Z,5.43
2019-05-13T00:22:53.817Z,5.41
2019-05-13T00:25:20.271Z,5.38
2019-05-13T00:27:46.388Z,5.37
2019-05-13T00:30:14.566Z,5.35
2019-05-13T00:32:44.320Z,5.33
2019-05-13T00:35:14.231Z,5.33
2019-05-13T00:37:44.034Z,5.34
2019-05-13T00:40:09.954Z,5.31
2019-05-13T00:42:36.219Z,5.30
2019-05-13T00:45:04.386Z,5.28
2019-05-13T00:47:30.541Z,5.27
2019-05-13T00:49:57.707Z,5.32
2019-05-13T00:52:23.975Z,5.35
2019-05-13T00:54:50.267Z,5.33
2019-05-13T00:57:16.552Z,5.36
2019-05-13T00:59:44.263Z,5.38
2019-05-13T01:02:10.580Z,5.44
2019-05-13T01:04:36.745Z,5.46
2019-05-13T01:07:04.497Z,5.48
2019-05-13T01:09:30.783Z,5.49
2019-05-13T01:11:57.050Z,5.48
2019-05-13T01:14:23.588Z,5.46
2019-05-13T01:16:49.864Z,5.44
2019-05-13T01:19:16.137Z,5.44
2019-05-13T01:21:43.453Z,5.44
2019-05-13T01:24:14.195Z,5.48
2019-05-13T01:26:39.864Z,5.53
2019-05-13T01:29:06.263Z,5.54
2019-05-13T01:31:34.385Z,5.52
2019-05-13T01:34:00.619Z,5.49
2019-05-13T01:36:26.908Z,5.41
2019-05-13T01:38:54.073Z,5.35
2019-05-13T01:41:21.200Z,5.31
2019-05-13T01:43:47.325Z,5.25
2019-05-13T01:46:13.695Z,5.20
2019-05-13T01:48:39.916Z,5.15
2019-05-13T01:51:06.222Z,5.10
2019-05-13T01:53:33.606Z,5.05
2019-05-13T01:56:00.316Z,4.99
2019-05-13T01:58:26.645Z,4.96
2019-05-13T02:00:55.225Z,4.90
2019-05-13T02:03:21.120Z,4.87
2019-05-13T02:05:47.284Z,4.85
2019-05-13T02:08:14.375Z,4.83
2019-05-13T02:10:54.831Z,4.78
2019-05-13T02:13:24.539Z,4.77
2019-05-13T02:15:50.435Z,4.72
2019-05-13T02:18:16.687Z,4.74
2019-05-13T02:20:44.390Z,4.73
2019-05-13T02:23:10.775Z,4.71
2019-05-13T02:25:37.445Z,4.67
2019-05-13T02:28:09.283Z,4.60
2019-05-13T02:30:34.884Z,4.54
2019-05-13T02:33:02.760Z,4.47
2019-05-13T02:35:32.261Z,4.38
2019-05-13T02:38:16.891Z,4.33
2019-05-13T02:40:25.491Z,4.23
2019-05-13T02:42:52.327Z,4.19
2019-05-13T02:45:18.705Z,4.16
2019-05-13T02:47:45.039Z,4.08
2019-05-13T02:50:12.894Z,4.02
2019-05-13T02:52:39.599Z,3.95
2019-05-13T02:55:06.114Z,3.91
2019-05-13T02:57:32.942Z,3.88
2019-05-13T02:59:59.425Z,3.85
2019-05-13T03:02:25.637Z,3.87
2019-05-13T03:04:52.494Z,3.82
2019-05-13T03:07:18.882Z,3.74
2019-05-13T03:09:44.991Z,3.69
2019-05-13T03:12:13.057Z,3.63
2019-05-13T03:14:44.758Z,3.63
2019-05-13T03:17:12.829Z,3.61
2019-05-13T03:19:37.410Z,3.64
2019-05-13T03:22:03.610Z,3.65
2019-05-13T03:24:32.973Z,3.65
2019-05-13T03:26:57.982Z,3.59
2019-05-13T03:29:24.105Z,3.53
2019-05-13T03:31:54.909Z,3.46
2019-05-13T03:34:18.408Z,3.47
2019-05-13T03:36:46.499Z,3.44
2019-05-13T03:39:16.238Z,3.43
2019-05-13T03:41:45.729Z,3.43
2019-05-13T03:44:13.501Z,3.38
2019-05-13T03:46:42.575Z,3.34
2019-05-13T03:49:13.270Z,3.33
2019-05-13T03:51:38.526Z,3.32
2019-05-13T03:54:05.882Z,3.25
2019-05-13T03:56:32.909Z,3.21
2019-05-13T03:59:02.490Z,3.17
2019-05-13T04:01:28.046Z,3.16
2019-05-13T04:03:54.475Z,3.15
2019-05-13T04:06:23.192Z,3.17
2019-05-13T04:08:48.913Z,3.18
2019-05-13T04:11:15.119Z,3.17
2019-05-13T04:13:42.932Z,3.19
2019-05-13T04:16:12.800Z,3.21
2019-05-13T04:18:38.340Z,3.23
2019-05-13T04:21:04.539Z,3.25
2019-05-13T04:23:32.339Z,3.27
2019-05-13T04:25:58.854Z,3.28
2019-05-13T04:28:25.231Z,3.30
2019-05-13T04:30:52.543Z,3.32
2019-05-13T04:33:22.539Z,3.34
2019-05-13T04:35:47.584Z,3.35
2019-05-13T04:38:13.819Z,3.37
2019-05-13T04:40:42.390Z,3.37
2019-05-13T04:43:08.509Z,3.37
2019-05-13T04:45:34.691Z,3.40
2019-05-13T04:48:03.207Z,3.44
2019-05-13T04:50:32.694Z,3.45
2019-05-13T04:52:57.793Z,3.47
2019-05-13T04:55:24.270Z,3.47
2019-05-13T04:57:53.325Z,3.48
2019-05-13T05:00:42.886Z,3.47
2019-05-13T05:03:13.678Z,3.47
2019-05-13T05:05:47.736Z,3.49
2019-05-13T05:08:47.373Z,3.53
2019-05-13T05:11:25.526Z,3.56
2019-05-13T05:14:13.912Z,3.59
2019-05-13T05:17:12.447Z,3.61
2019-05-13T05:19:52.249Z,3.62
2019-05-13T05:22:27.703Z,3.66
2019-05-13T05:25:16.114Z,3.64
2019-05-13T05:28:04.214Z,3.67
2019-05-13T05:30:51.695Z,3.67
2019-05-13T05:33:27.454Z,3.66
2019-05-13T05:36:01.797Z,3.66
2019-05-13T05:38:55.961Z,3.66
2019-05-13T05:41:25.941Z,3.67
2019-05-13T05:43:53.539Z,3.67
2019-05-13T05:46:22.618Z,3.65
2019-05-13T05:48:53.015Z,3.62
2019-05-13T05:51:22.134Z,3.61
2019-05-13T05:53:51.669Z,3.67
2019-05-13T05:56:21.863Z,3.67
2019-05-13T05:58:48.962Z,3.71
2019-05-13T06:01:15.560Z,3.77
2019-05-13T06:03:43.347Z,3.86
2019-05-13T06:06:12.384Z,4.00
2019-05-13T06:08:41.254Z,4.21
2019-05-13T06:11:07.288Z,4.48
2019-05-13T06:13:35.368Z,4.65
2019-05-13T06:16:01.900Z,4.77
2019-05-13T06:18:28.178Z,4.78
2019-05-13T06:20:54.504Z,4.87
2019-05-13T06:23:22.207Z,4.94
2019-05-13T06:25:48.674Z,5.09
2019-05-13T06:28:14.832Z,5.34
2019-05-13T06:30:41.605Z,5.48
2019-05-13T06:33:08.409Z,5.71
2019-05-13T06:35:34.625Z,5.83
2019-05-13T06:38:01.451Z,5.97
2019-05-13T06:40:27.774Z,6.07
2019-05-13T06:42:53.940Z,6.09
2019-05-13T06:45:21.593Z,6.01
2019-05-13T06:47:48.038Z,5.90
2019-05-13T06:50:14.498Z,5.91
2019-05-13T06:52:42.499Z,5.86
2019-05-13T06:55:11.381Z,5.75
2019-05-13T06:57:37.080Z,5.60
2019-05-13T07:00:06.739Z,5.47
2019-05-13T07:02:33.050Z,5.46
2019-05-13T07:04:59.270Z,5.44
2019-05-13T07:07:25.487Z,5.46
2019-05-13T07:09:51.884Z,5.50
2019-05-13T07:12:18.334Z,5.55
2019-05-13T07:14:44.529Z,5.58
2019-05-13T07:17:12.360Z,5.71
2019-05-13T07:19:41.238Z,5.84
2019-05-13T07:22:06.898Z,5.88
2019-05-13T07:24:33.164Z,5.88
2019-05-13T07:27:01.837Z,5.88
2019-05-13T07:29:27.884Z,5.94
2019-05-13T07:31:54.125Z,6.01
2019-05-13T07:34:24.547Z,6.10
2019-05-13T07:36:48.633Z,6.18
2019-05-13T07:39:15.145Z,6.19
2019-05-13T07:41:43.066Z,6.23
2019-05-13T07:44:11.838Z,6.23
2019-05-13T07:46:37.725Z,6.24
2019-05-13T07:49:03.874Z,6.26
2019-05-13T07:51:31.668Z,6.34
2019-05-13T07:53:58.153Z,6.36
2019-05-13T07:56:24.321Z,6.45
2019-05-13T07:58:52.385Z,6.49
2019-05-13T08:01:18.869Z,6.44
2019-05-13T08:03:45.049Z,6.46
2019-05-13T08:06:11.349Z,6.55
2019-05-13T08:08:37.611Z,6.72
2019-05-13T08:11:04.094Z,7.02
2019-05-13T08:13:31.455Z,7.23
2019-05-13T08:15:57.843Z,7.60
2019-05-13T08:18:24.209Z,7.90
2019-05-13T08:20:52.466Z,7.91
2019-05-13T08:23:18.677Z,7.88
2019-05-13T08:25:44.912Z,8.00
2019-05-13T08:28:12.316Z,8.25
2019-05-13T08:30:38.774Z,8.45
2019-05-13T08:33:05.107Z,8.45
2019-05-13T08:35:41.578Z,8.69
2019-05-13T08:38:12.041Z,8.88
2019-05-13T08:40:38.533Z,8.98
2019-05-13T08:43:06.887Z,8.97
2019-05-13T08:45:33.341Z,8.86
2019-05-13T08:48:01.770Z,8.99
2019-05-13T08:50:27.803Z,9.16
2019-05-13T08:52:53.919Z,9.08
2019-05-13T08:55:21.487Z,8.78
2019-05-13T08:57:47.745Z,8.91
2019-05-13T09:00:18.068Z,9.32
2019-05-13T09:02:44.272Z,9.85
2019-05-13T09:05:12.026Z,10.15
2019-05-13T09:07:41.140Z,10.20
2019-05-13T09:10:06.973Z,10.32
2019-05-13T09:12:37.064Z,10.75
2019-05-13T09:15:03.278Z,11.05
2019-05-13T09:17:31.861Z,10.78
2019-05-13T09:19:58.143Z,10.63
2019-05-13T09:22:24.474Z,10.66
2019-05-13T09:24:52.988Z,10.91
2019-05-13T09:27:18.845Z,11.21
2019-05-13T09:29:44.955Z,11.25
2019-05-13T09:32:12.220Z,11.44
2019-05-13T09:34:38.739Z,11.44
2019-05-13T09:37:05.124Z,11.42
2019-05-13T09:39:32.344Z,11.43
2019-05-13T09:41:58.801Z,11.47
2019-05-13T09:44:25.040Z,11.62
2019-05-13T09:46:51.790Z,11.60
2019-05-13T09:49:20.041Z,11.37
2019-05-13T09:51:46.110Z,11.47
2019-05-13T09:54:12.288Z,11.93
2019-05-13T09:56:38.510Z,12.28
2019-05-13T09:59:04.640Z,12.57
2019-05-13T10:01:32.049Z,12.41
2019-05-13T10:03:58.394Z,12.17
2019-05-13T10:06:24.615Z,12.03
2019-05-13T10:08:52.688Z,12.01
2019-05-13T10:11:21.534Z,12.05
2019-05-13T10:13:47.091Z,12.47
2019-05-13T10:16:13.337Z,12.94
2019-05-13T10:18:41.866Z,13.13
2019-05-13T10:21:07.627Z,13.35
2019-05-13T10:23:34.039Z,12.99
2019-05-13T10:26:04.132Z,13.03
2019-05-13T10:28:31.950Z,13.18
2019-05-13T10:30:58.694Z,13.07
2019-05-13T10:33:25.800Z,13.24
2019-05-13T10:35:52.770Z,13.23
2019-05-13T10:38:22.061Z,13.52
2019-05-13T10:40:48.331Z,13.67
2019-05-13T10:43:29.473Z,14.51
2019-05-13T10:45:43.031Z,16.02
2019-05-13T10:48:10.396Z,16.57
2019-05-13T10:50:37.582Z,15.92
2019-05-13T10:53:03.942Z,17.00
2019-05-13T10:55:32.455Z,18.24
2019-05-13T10:57:58.234Z,19.73
2019-05-13T11:00:42.371Z,18.44
2019-05-13T11:03:08.571Z,16.77
2019-05-13T11:05:41.075Z,18.70
2019-05-13T11:08:04.173Z,20.44
2019-05-13T11:10:32.567Z,22.32
2019-05-13T11:13:01.602Z,20.78
2019-05-13T11:15:32.813Z,19.62
2019-05-13T11:17:56.152Z,21.44
2019-05-13T11:20:22.418Z,22.24
2019-05-13T11:22:48.906Z,23.66
2019-05-13T11:25:15.565Z,24.79
2019-05-13T11:27:42.241Z,25.71
2019-05-13T11:30:08.968Z,25.77
2019-05-13T11:32:35.309Z,26.12
2019-05-13T11:35:02.189Z,26.91
2019-05-13T11:37:32.053Z,26.63
2019-05-13T11:39:58.386Z,23.92
2019-05-13T11:42:24.760Z,25.08
2019-05-13T11:44:52.723Z,26.24
2019-05-13T11:47:19.235Z,27.36
2019-05-13T11:49:45.480Z,26.64
2019-05-13T11:52:12.068Z,26.32
2019-05-13T11:54:38.564Z,24.18
2019-05-13T11:57:06.318Z,26.89
2019-05-13T11:59:33.251Z,26.81
2019-05-13T12:02:04.026Z,27.88
2019-05-13T12:04:27.555Z,28.31
2019-05-13T12:06:54.704Z,28.80
2019-05-13T12:09:22.322Z,26.71
2019-05-13T12:11:48.613Z,25.26
2019-05-13T12:14:39.327Z,26.00
2019-05-13T12:16:43.197Z,27.57
2019-05-13T12:19:11.850Z,26.15
2019-05-13T12:21:42.066Z,27.34
2019-05-13T12:24:10.430Z,27.83
2019-05-13T12:26:34.197Z,27.93
2019-05-13T12:29:02.834Z,28.04
2019-05-13T12:31:33.366Z,27.83
2019-05-13T12:33:57.402Z,28.51
2019-05-13T12:36:24.403Z,28.91
2019-05-13T12:38:53.502Z,29.38
2019-05-13T12:41:22.762Z,29.35
2019-05-13T12:43:47.410Z,29.61
2019-05-13T12:46:13.716Z,28.35
2019-05-13T12:48:40.877Z,29.09
2019-05-13T12:51:07.150Z,29.45
2019-05-13T12:53:33.480Z,28.13
2019-05-13T12:56:03.158Z,29.77
2019-05-13T12:58:28.219Z,27.23
2019-05-13T13:00:54.391Z,28.50
2019-05-13T13:03:23.188Z,29.18
2019-05-13T13:05:48.978Z,29.72
2019-05-13T13:08:28.996Z,30.83
2019-05-13T13:10:43.817Z,31.46
2019-05-13T13:13:10.270Z,29.42
2019-05-13T13:15:42.259Z,27.44
2019-05-13T13:18:05.263Z,25.86
2019-05-13T13:20:41.633Z,27.98
2019-05-13T13:23:04.407Z,27.37
2019-05-13T13:25:29.232Z,26.47
2019-05-13T13:28:10.094Z,24.93
2019-05-13T13:30:24.587Z,23.69
2019-05-13T13:32:54.891Z,22.84
2019-05-13T13:35:21.251Z,22.20
2019-05-13T13:37:47.512Z,22.97
2019-05-13T13:40:14.013Z,23.55
2019-05-13T13:42:43.064Z,21.95
2019-05-13T13:45:10.244Z,21.39
2019-05-13T13:47:36.501Z,21.48
2019-05-13T13:50:05.538Z,21.17
2019-05-13T13:52:33.670Z,21.36
2019-05-13T13:55:06.219Z,20.45
2019-05-13T13:57:28.125Z,19.57
2019-05-13T14:02:25.245Z,18.78
2019-05-13T14:04:54.142Z,18.82
2019-05-13T14:06:59.245Z,18.92
2019-05-13T14:07:31.218Z,21.13
2019-05-13T14:09:47.028Z,22.87
2019-05-13T14:12:13.304Z,22.48
2019-05-13T14:14:41.458Z,22.69
2019-05-13T14:17:07.923Z,22.85
2019-05-13T14:19:34.197Z,22.49
2019-05-13T14:22:01.720Z,22.08
2019-05-13T14:24:28.046Z,21.76
2019-05-13T14:26:55.079Z,23.38
2019-05-13T14:29:36.303Z,25.52
2019-05-13T14:31:52.042Z,26.59
2019-05-13T14:34:18.345Z,27.02
2019-05-13T14:36:44.800Z,26.05
2019-05-13T14:39:12.005Z,24.27
2019-05-13T14:41:38.433Z,24.56
2019-05-13T14:44:07.882Z,25.74
2019-05-13T14:46:46.657Z,23.66
2019-05-13T14:49:02.822Z,22.67
2019-05-13T14:51:29.321Z,24.58
2019-05-13T14:53:55.553Z,25.89
2019-05-13T14:56:22.232Z,26.92
2019-05-13T14:58:48.457Z,27.93
2019-05-13T15:01:19.818Z,28.50
2019-05-13T15:03:43.153Z,27.09
2019-05-13T15:06:11.785Z,25.03
2019-05-13T15:08:37.926Z,23.12
2019-05-13T15:11:04.220Z,21.70
2019-05-13T15:13:31.882Z,20.81
2019-05-13T15:15:58.783Z,19.95
2019-05-13T15:18:25.032Z,19.29
2019-05-13T15:20:52.925Z,18.85
2019-05-13T15:23:22.090Z,18.74
2019-05-13T15:25:47.957Z,18.52
2019-05-13T15:28:14.176Z,18.56
2019-05-13T15:30:42.075Z,18.68
2019-05-13T15:33:08.775Z,18.54
2019-05-13T15:35:35.067Z,18.48
2019-05-13T15:38:02.104Z,18.35
2019-05-13T15:40:31.088Z,18.15
2019-05-13T15:42:56.838Z,17.98
2019-05-13T15:45:23.266Z,17.74
2019-05-13T15:47:51.555Z,17.65
2019-05-13T15:50:17.881Z,17.46
2019-05-13T15:52:44.161Z,16.83
2019-05-13T15:55:11.983Z,16.40
2019-05-13T15:57:38.617Z,16.15
2019-05-13T16:00:07.257Z,15.91
2019-05-13T16:02:33.522Z,15.70
2019-05-13T16:05:02.272Z,15.44
2019-05-13T16:07:28.237Z,15.35
2019-05-13T16:09:54.608Z,15.27
2019-05-13T16:12:21.310Z,15.21
2019-05-13T16:14:48.057Z,15.02
2019-05-13T16:17:14.317Z,14.75
2019-05-13T16:19:42.003Z,14.49
2019-05-13T16:22:08.625Z,14.45
2019-05-13T16:24:34.839Z,14.45
2019-05-13T16:27:02.478Z,14.35
2019-05-13T16:29:31.514Z,14.18
2019-05-13T16:31:58.168Z,13.92
2019-05-13T16:34:24.457Z,13.77
2019-05-13T16:36:53.036Z,13.69
2019-05-13T16:39:21.100Z,13.65
2019-05-13T16:41:47.032Z,13.59
2019-05-13T16:44:13.319Z,13.60
2019-05-13T16:46:42.560Z,13.73
2019-05-13T16:49:08.577Z,13.82
2019-05-13T16:51:34.821Z,13.92
2019-05-13T16:54:01.051Z,14.02
2019-05-13T16:56:30.371Z,14.09
2019-05-13T16:58:55.491Z,14.13
2019-05-13T17:01:22.066Z,14.19
2019-05-13T17:03:48.417Z,14.07
2019-05-13T17:06:14.586Z,14.03
2019-05-13T17:08:42.462Z,13.87
2019-05-13T17:11:11.545Z,13.76
2019-05-13T17:13:37.463Z,13.75
2019-05-13T17:16:04.047Z,13.69
2019-05-13T17:18:32.327Z,13.65
2019-05-13T17:20:58.535Z,13.62
2019-05-13T17:23:24.774Z,13.60
2019-05-13T17:25:51.990Z,13.62
2019-05-13T17:28:18.384Z,13.70
2019-05-13T17:30:44.679Z,13.68
2019-05-13T17:33:11.771Z,13.67
2019-05-13T17:35:38.360Z,13.55
2019-05-13T17:38:04.872Z,13.44
2019-05-13T17:40:31.552Z,13.33
2019-05-13T17:42:59.927Z,13.16
2019-05-13T17:45:26.251Z,13.05
2019-05-13T17:47:52.424Z,12.98
2019-05-13T17:50:18.756Z,12.94
2019-05-13T17:52:44.897Z,12.88
2019-05-13T17:55:11.875Z,12.84
2019-05-13T17:57:38.236Z,12.87
2019-05-13T18:00:05.906Z,12.90
2019-05-13T18:02:32.166Z,12.83
2019-05-13T18:04:58.418Z,12.69
2019-05-13T18:07:24.726Z,12.58
2019-05-13T18:09:52.050Z,12.50
2019-05-13T18:12:19.087Z,12.35
2019-05-13T18:14:45.514Z,12.28
2019-05-13T18:17:12.513Z,12.17
2019-05-13T18:19:38.976Z,12.07
2019-05-13T18:22:05.300Z,11.92
2019-05-13T18:24:32.164Z,11.78
2019-05-13T18:26:58.549Z,11.64
2019-05-13T18:29:24.657Z,11.49
2019-05-13T18:31:52.430Z,11.35
2019-05-13T18:34:18.824Z,11.22
2019-05-13T18:36:45.035Z,11.10
2019-05-13T18:39:12.412Z,11.00
2019-05-13T18:41:41.208Z,10.90
2019-05-13T18:44:06.941Z,10.78
2019-05-13T18:46:33.250Z,10.66
2019-05-13T18:49:02.063Z,10.50
2019-05-13T18:51:27.926Z,10.34
2019-05-13T18:53:54.184Z,10.22
2019-05-13T18:56:21.933Z,10.05
2019-05-13T18:58:48.055Z,9.91
2019-05-13T19:01:14.362Z,9.79
2019-05-13T19:03:41.419Z,9.69
2019-05-13T19:06:07.795Z,9.56
2019-05-13T19:08:34.113Z,9.45
2019-05-13T19:11:01.140Z,9.35
2019-05-13T19:13:27.699Z,9.28
2019-05-13T19:15:53.998Z,9.12
2019-05-13T19:18:21.480Z,9.04
2019-05-13T19:20:47.866Z,8.94
2019-05-13T19:23:14.099Z,8.79
2019-05-13T19:25:42.756Z,8.62
2019-05-13T19:28:08.354Z,8.47
2019-05-13T19:30:34.501Z,8.27
2019-05-13T19:33:01.361Z,8.20
2019-05-13T19:35:27.715Z,8.09
2019-05-13T19:37:53.902Z,8.00
2019-05-13T19:40:22.044Z,7.87
2019-05-13T19:42:48.306Z,7.72
2019-05-13T19:45:15.628Z,7.64
2019-05-13T19:47:42.076Z,7.45
2019-05-13T19:50:08.664Z,7.34
2019-05-13T19:52:34.948Z,7.28
2019-05-13T19:55:04.125Z,7.21
2019-05-13T19:57:31.723Z,7.29
2019-05-13T19:59:58.182Z,7.27
2019-05-13T20:02:24.409Z,7.18
2019-05-13T20:04:51.865Z,6.97
2019-05-13T20:07:18.517Z,6.91
2019-05-13T20:09:44.836Z,6.86
2019-05-13T20:12:11.365Z,6.76
2019-05-13T20:14:37.902Z,6.63
2019-05-13T20:17:04.214Z,6.54
2019-05-13T20:19:46.150Z,6.48
2019-05-13T20:22:02.208Z,6.40
2019-05-13T20:24:28.232Z,6.34
2019-05-13T20:26:54.410Z,6.33
2019-05-13T20:29:20.670Z,6.31
2019-05-13T20:31:48.120Z,6.27
2019-05-13T20:34:14.243Z,6.23
2019-05-13T20:36:42.322Z,6.15
2019-05-13T20:39:08.708Z,6.14
2019-05-13T20:41:35.076Z,6.08
2019-05-13T20:44:01.634Z,6.04
2019-05-13T20:46:27.888Z,5.96
2019-05-13T20:48:54.132Z,5.89
2019-05-13T20:51:22.010Z,5.81
2019-05-13T20:53:48.250Z,5.74
2019-05-13T20:56:14.415Z,5.70
2019-05-13T20:58:42.164Z,5.70
2019-05-13T21:01:08.498Z,5.67
2019-05-13T21:03:34.639Z,5.68
2019-05-13T21:06:00.819Z,5.68
2019-05-13T21:08:27.028Z,5.63
2019-05-13T21:10:53.319Z,5.54
2019-05-13T21:13:21.191Z,5.52
2019-05-13T21:15:47.468Z,5.47
2019-05-13T21:18:13.687Z,5.43
2019-05-13T21:20:40.971Z,5.44
2019-05-13T21:23:07.287Z,5.47
2019-05-13T21:25:33.529Z,5.41
2019-05-13T21:28:01.963Z,5.47
2019-05-13T21:30:27.902Z,5.57
2019-05-13T21:32:54.119Z,5.68
2019-05-13T21:35:21.197Z,5.80
2019-05-13T21:37:47.607Z,5.94
2019-05-13T21:40:16.120Z,6.01
2019-05-13T21:42:42.221Z,6.08
2019-05-13T21:45:10.991Z,6.15
2019-05-13T21:47:36.900Z,6.22
2019-05-13T21:50:05.116Z,6.27
2019-05-13T21:52:32.353Z,6.30
2019-05-13T21:54:58.658Z,6.36
2019-05-13T21:57:24.975Z,6.39
2019-05-13T21:59:51.590Z,6.40
2019-05-13T22:02:17.931Z,6.38
2019-05-13T22:04:44.085Z,6.34
2019-05-13T22:07:12.195Z,6.33
2019-05-13T22:09:38.303Z,6.25
2019-05-13T22:12:04.534Z,6.17
2019-05-13T22:14:32.041Z,6.18
2019-05-13T22:16:58.471Z,6.17
2019-05-13T22:19:24.716Z,6.15
2019-05-13T22:21:51.555Z,6.13
2019-05-13T22:24:17.825Z,6.12
2019-05-13T22:26:45.554Z,6.12
2019-05-13T22:29:12.345Z,6.13
2019-05-13T22:31:38.499Z,6.19
2019-05-13T22:34:04.949Z,6.26
2019-05-13T22:36:31.767Z,6.27
2019-05-13T22:38:58.167Z,6.28
2019-05-13T22:41:24.376Z,6.29
2019-05-13T22:43:58.236Z,6.30
2019-05-13T22:46:18.607Z,6.31
2019-05-13T22:48:44.881Z,6.30
2019-05-13T22:51:11.786Z,6.28
2019-05-13T22:53:38.283Z,6.26
2019-05-13T22:56:04.749Z,6.22
2019-05-13T22:58:32.163Z,6.19
2019-05-13T23:00:58.536Z,6.17
2019-05-13T23:03:24.745Z,6.21
2019-05-13T23:05:52.313Z,6.23
2019-05-13T23:08:18.479Z,6.28
2019-05-13T23:10:44.687Z,6.35
2019-05-13T23:13:10.827Z,6.41
2019-05-13T23:15:37.027Z,6.47
2019-05-13T23:18:03.237Z,6.52
2019-05-13T23:20:31.596Z,6.52
2019-05-13T23:22:57.555Z,6.52
2019-05-13T23:25:23.785Z,6.51
2019-05-13T23:27:51.354Z,6.54
2019-05-13T23:30:17.693Z,6.59
2019-05-13T23:32:43.815Z,6.58
2019-05-13T23:35:11.172Z,6.57
2019-05-13T23:37:37.562Z,6.49
2019-05-13T23:40:07.148Z,6.38
2019-05-13T23:42:33.310Z,6.27
2019-05-13T23:44:59.489Z,6.17
2019-05-13T23:47:25.664Z,6.08
2019-05-13T23:49:51.884Z,5.98
2019-05-13T23:52:17.988Z,5.90
2019-05-13T23:54:44.197Z,5.80
2019-05-13T23:57:11.749Z,5.71
2019-05-13T23:59:38.154Z,5.66
